Terminal Aerodrome Forecast
Issued by NWS Memphis, TN

Home | Current Version | Previous Version | Text Only | Print | Product List | Glossary On
Versions: 1 2 3 4 5 6 7 8 9 10 11 12 13 14 15 16 17 18 19
000
FTUS44 KMEG 262050 AAA
TAFJBR
TAF AMD
KJBR 262050Z 2621/2718 20012G18KT P6SM VCTS SCT030CB OVC050
     FM270100 19007KT P6SM VCTS SCT025 BKN040CB BKN100
      TEMPO 2709/2712 3SM TSRA BKN025CB
     FM271300 18010KT P6SM VCTS BKN030CB OVC040=

USA.gov is the U.S. government's official web portal to all federal, state and local government web resources and services.